createdAt,value
2019-04-21T00:01:05.060Z,9.30
2019-04-21T00:04:21.162Z,9.67
2019-04-21T00:07:33.198Z,8.03
2019-04-21T00:10:40.085Z,13.77
2019-04-21T00:13:43.895Z,8.97
2019-04-21T00:16:46.643Z,13.13
2019-04-21T00:19:47.669Z,9.20
2019-04-21T00:23:13.141Z,11.30
2019-04-21T00:26:15.146Z,11.27
2019-04-21T00:29:30.357Z,10.00
2019-04-21T00:32:28.112Z,14.10
2019-04-21T00:35:27.491Z,10.63
2019-04-21T00:39:02.117Z,12.70
2019-04-21T00:41:59.626Z,14.47
2019-04-21T00:45:02.060Z,13.07
2019-04-21T00:48:20.657Z,14.17
2019-04-21T00:51:36.058Z,14.77
2019-04-21T00:54:35.387Z,15.67
2019-04-21T00:57:49.880Z,13.70
2019-04-21T01:00:47.605Z,13.33
2019-04-21T01:03:52.969Z,13.20
2019-04-21T01:07:05.537Z,16.37
2019-04-21T01:09:58.341Z,13.93
2019-04-21T01:13:18.695Z,14.67
2019-04-21T01:16:20.648Z,14.77
2019-04-21T01:19:29.827Z,13.10
2019-04-21T01:22:12.496Z,11.33
2019-04-21T01:25:27.409Z,9.97
2019-04-21T01:28:40.015Z,11.27
2019-04-21T01:31:48.488Z,13.50
2019-04-21T01:35:00.727Z,13.07
2019-04-21T01:38:07.149Z,12.10
2019-04-21T01:41:15.541Z,9.87
2019-04-21T01:44:25.060Z,12.13
2019-04-21T01:47:20.151Z,10.70
2019-04-21T01:50:31.262Z,11.37
2019-04-21T01:53:56.506Z,9.77
2019-04-21T01:57:15.640Z,12.03
2019-04-21T02:00:13.668Z,12.47
2019-04-21T02:03:46.999Z,14.27
2019-04-21T02:06:39.118Z,15.10
2019-04-21T02:09:44.364Z,13.13
2019-04-21T02:12:52.282Z,14.00
2019-04-21T02:16:02.131Z,13.50
2019-04-21T02:19:00.073Z,12.63
2019-04-21T02:22:10.806Z,12.00
2019-04-21T02:25:23.092Z,13.13
2019-04-21T02:28:36.745Z,11.83
2019-04-21T02:32:01.628Z,14.73
2019-04-21T02:35:12.408Z,13.17
2019-04-21T02:38:02.042Z,12.93
2019-04-21T02:41:31.183Z,13.10
2019-04-21T02:47:27.563Z,13.43
2019-04-21T02:50:31.574Z,11.23
2019-04-21T02:56:50.238Z,11.90
2019-04-21T03:03:13.539Z,15.40
2019-04-21T03:06:40.209Z,11.97
2019-04-21T03:09:33.574Z,11.50
2019-04-21T03:12:38.118Z,13.50
2019-04-21T03:16:02.355Z,14.30
2019-04-21T03:18:56.755Z,16.77
2019-04-21T03:22:05.032Z,11.77
2019-04-21T03:25:25.373Z,13.57
2019-04-21T03:28:22.616Z,14.10
2019-04-21T03:40:42.496Z,11.13
2019-04-21T03:43:54.722Z,12.03
2019-04-21T03:47:02.188Z,12.77
2019-04-21T03:50:29.672Z,12.63
2019-04-21T03:53:09.299Z,11.90
2019-04-21T03:56:45.287Z,10.33
2019-04-21T03:59:25.033Z,12.97
2019-04-21T04:02:54.621Z,13.47
2019-04-21T04:06:22.612Z,12.60
2019-04-21T04:12:48.724Z,12.63
2019-04-21T04:15:51.449Z,11.47
2019-04-21T04:18:55.759Z,12.53
2019-04-21T04:22:09.112Z,13.17
2019-04-21T04:25:15.749Z,11.07
2019-04-21T04:28:18.952Z,11.00
2019-04-21T04:34:29.315Z,11.00
2019-04-21T04:37:36.689Z,14.23
2019-04-21T04:41:02.875Z,13.03
2019-04-21T04:44:07.003Z,13.13
2019-04-21T04:47:12.265Z,12.93
2019-04-21T04:50:15.668Z,11.07
2019-04-21T04:53:32.817Z,12.07
2019-04-21T04:59:42.501Z,12.47
2019-04-21T05:06:37.177Z,17.43
2019-04-21T05:09:28.650Z,15.13
2019-04-21T05:12:29.474Z,10.63
2019-04-21T05:15:37.876Z,12.17
2019-04-21T05:18:54.332Z,12.57
2019-04-21T05:21:48.050Z,11.63
2019-04-21T05:24:50.720Z,10.17
2019-04-21T05:27:55.368Z,10.03
2019-04-21T05:31:25.627Z,9.37
2019-04-21T05:34:30.532Z,16.47
2019-04-21T05:37:58.596Z,9.17
2019-04-21T05:40:52.259Z,9.30
2019-04-21T05:44:13.219Z,9.60
2019-04-21T05:47:37.944Z,8.33
2019-04-21T05:50:16.612Z,7.50
2019-04-21T05:56:36.536Z,8.77
2019-04-21T05:59:47.963Z,9.23
2019-04-21T06:03:00.089Z,7.40
2019-04-21T06:06:00.742Z,10.80
2019-04-21T06:09:11.106Z,9.40
2019-04-21T06:12:16.683Z,8.20
2019-04-21T06:15:19.743Z,7.30
2019-04-21T06:18:36.426Z,9.50
2019-04-21T06:21:33.287Z,8.70
2019-04-21T06:25:06.852Z,7.47
2019-04-21T06:27:52.670Z,7.50
2019-04-21T06:31:05.608Z,8.00
2019-04-21T06:34:06.711Z,7.17
2019-04-21T06:37:34.865Z,10.53
2019-04-21T06:43:51.051Z,7.93
2019-04-21T06:46:35.221Z,9.73
2019-04-21T06:49:41.095Z,8.67
2019-04-21T06:52:53.891Z,8.13
2019-04-21T06:55:57.536Z,11.43
2019-04-21T06:59:01.407Z,9.47
2019-04-21T07:02:31.856Z,12.83
2019-04-21T07:05:17.104Z,9.03
2019-04-21T07:11:26.716Z,8.43
2019-04-21T07:14:33.351Z,8.53
2019-04-21T07:17:43.242Z,10.87
2019-04-21T07:20:53.530Z,9.40
2019-04-21T07:23:59.136Z,9.40
2019-04-21T07:27:08.949Z,9.10
2019-04-21T07:30:12.954Z,8.53
2019-04-21T07:33:41.511Z,8.23
2019-04-21T07:36:31.861Z,10.67
2019-04-21T07:39:29.895Z,11.17
2019-04-21T07:42:32.858Z,10.80
2019-04-21T07:45:42.680Z,9.17
2019-04-21T07:48:57.954Z,13.23
2019-04-21T07:52:22.132Z,9.30
2019-04-21T07:58:38.675Z,9.67
2019-04-21T08:01:44.138Z,10.50
2019-04-21T08:07:57.184Z,11.53
2019-04-21T08:11:01.723Z,10.33
2019-04-21T08:14:16.995Z,12.30
2019-04-21T08:17:16.568Z,9.37
2019-04-21T08:20:24.395Z,8.43
2019-04-21T08:23:31.460Z,10.03
2019-04-21T08:26:45.019Z,9.87
2019-04-21T08:29:54.874Z,9.33
2019-04-21T08:33:00.516Z,10.87
2019-04-21T08:39:11.062Z,8.20
2019-04-21T08:42:23.922Z,9.67
2019-04-21T08:48:33.896Z,12.43
2019-04-21T08:51:43.631Z,10.33
2019-04-21T08:54:51.676Z,10.87
2019-04-21T09:01:30.470Z,9.77
2019-04-21T09:04:33.478Z,15.10
2019-04-21T09:07:47.250Z,11.43
2019-04-21T09:10:56.088Z,9.20
2019-04-21T09:13:57.529Z,8.43
2019-04-21T09:17:05.189Z,9.03
2019-04-21T09:20:22.628Z,6.97
2019-04-21T09:23:21.044Z,6.33
2019-04-21T09:26:27.096Z,6.87
2019-04-21T09:29:25.678Z,8.47
2019-04-21T09:32:23.886Z,6.20
2019-04-21T09:35:27.046Z,11.07
2019-04-21T09:38:37.110Z,7.13
2019-04-21T09:41:40.961Z,6.47
2019-04-21T09:44:51.865Z,6.47
2019-04-21T09:48:00.869Z,6.83
2019-04-21T09:51:01.945Z,5.80
2019-04-21T09:54:12.068Z,8.50
2019-04-21T09:57:23.987Z,7.87
2019-04-21T10:00:25.347Z,5.83
2019-04-21T10:03:39.625Z,7.77
2019-04-21T10:06:35.469Z,7.17
2019-04-21T10:09:40.594Z,8.10
2019-04-21T10:12:45.792Z,9.10
2019-04-21T10:16:05.145Z,9.77
2019-04-21T10:19:11.178Z,7.37
2019-04-21T10:22:18.912Z,6.63
2019-04-21T10:25:25.040Z,9.10
2019-04-21T10:28:31.425Z,5.60
2019-04-21T10:31:36.820Z,7.37
2019-04-21T10:34:43.202Z,11.93
2019-04-21T10:38:01.258Z,7.03
2019-04-21T10:40:55.436Z,7.00
2019-04-21T10:44:01.036Z,7.17
2019-04-21T10:47:06.865Z,10.03
2019-04-21T10:50:13.318Z,4.90
2019-04-21T10:53:23.030Z,6.50
2019-04-21T10:56:34.381Z,8.93
2019-04-21T10:59:35.366Z,6.00
2019-04-21T11:02:46.492Z,7.67
2019-04-21T11:05:52.633Z,6.73
2019-04-21T11:08:59.936Z,6.30
2019-04-21T11:12:08.292Z,7.43
2019-04-21T11:15:14.829Z,7.03
2019-04-21T11:18:21.939Z,8.50
2019-04-21T11:21:27.254Z,8.53
2019-04-21T11:24:33.305Z,7.47
2019-04-21T11:27:38.562Z,6.80
2019-04-21T11:30:44.512Z,6.70
2019-04-21T11:33:51.181Z,7.77
2019-04-21T11:36:56.463Z,6.33
2019-04-21T11:40:07.171Z,11.40
2019-04-21T11:43:09.583Z,7.77
2019-04-21T11:46:16.134Z,8.33
2019-04-21T11:49:22.346Z,6.40
2019-04-21T11:52:27.550Z,7.30
2019-04-21T11:55:37.101Z,6.93
2019-04-21T11:58:41.541Z,6.43
2019-04-21T12:01:47.619Z,10.10
2019-04-21T12:04:53.782Z,11.30
2019-04-21T12:08:00.172Z,8.80
2019-04-21T12:11:05.578Z,8.17
2019-04-21T12:14:12.043Z,10.63
2019-04-21T12:17:18.311Z,8.20
2019-04-21T12:20:24.429Z,8.13
2019-04-21T12:23:30.189Z,9.10
2019-04-21T12:26:35.998Z,6.97
2019-04-21T12:29:41.859Z,5.80
2019-04-21T12:32:55.964Z,6.40
2019-04-21T12:36:01.896Z,6.50
2019-04-21T12:39:10.862Z,8.07
2019-04-21T12:42:16.588Z,8.70
2019-04-21T12:45:22.137Z,6.67
2019-04-21T12:48:28.211Z,8.27
2019-04-21T12:51:35.407Z,6.33
2019-04-21T12:54:41.805Z,6.27
2019-04-21T12:57:47.666Z,10.20
2019-04-21T13:00:52.978Z,5.63
2019-04-21T13:03:58.207Z,8.87
2019-04-21T13:07:05.569Z,5.17
2019-04-21T13:10:12.601Z,4.97
2019-04-21T13:13:17.893Z,5.53
2019-04-21T13:16:23.380Z,5.77
2019-04-21T13:19:29.387Z,5.30
2019-04-21T13:22:36.033Z,4.47
2019-04-21T13:25:41.787Z,5.93
2019-04-21T13:28:48.183Z,6.67
2019-04-21T13:31:54.282Z,5.23
2019-04-21T13:35:01.112Z,8.00
2019-04-21T13:38:18.825Z,6.53
2019-04-21T13:41:32.611Z,7.57
2019-04-21T13:44:26.749Z,6.90
2019-04-21T13:47:34.535Z,7.27
2019-04-21T13:50:41.498Z,8.47
2019-04-21T13:53:46.774Z,5.10
2019-04-21T13:56:52.398Z,5.80
2019-04-21T13:59:59.143Z,5.07
2019-04-21T14:03:05.098Z,7.90
2019-04-21T14:06:10.284Z,5.83
2019-04-21T14:09:40.294Z,6.60
2019-04-21T14:12:36.409Z,7.17
2019-04-21T14:15:42.091Z,6.47
2019-04-21T14:18:49.595Z,7.27
2019-04-21T14:21:55.201Z,8.20
2019-04-21T14:25:01.807Z,4.83
2019-04-21T14:28:08.106Z,4.87
2019-04-21T14:31:14.459Z,4.97
2019-04-21T14:34:20.094Z,8.03
2019-04-21T14:37:26.476Z,5.63
2019-04-21T14:40:35.029Z,5.50
2019-04-21T14:43:39.258Z,8.27
2019-04-21T14:47:06.965Z,10.33
2019-04-21T14:50:32.440Z,6.77
2019-04-21T14:53:48.047Z,6.97
2019-04-21T14:56:53.491Z,6.50
2019-04-21T15:00:00.722Z,6.60
2019-04-21T15:03:07.536Z,9.53
2019-04-21T15:06:13.544Z,8.20
2019-04-21T15:09:18.946Z,6.23
2019-04-21T15:12:23.995Z,6.37
2019-04-21T15:15:29.946Z,7.90
2019-04-21T15:18:36.831Z,8.43
2019-04-21T15:21:42.520Z,5.70
2019-04-21T15:24:48.155Z,6.23
2019-04-21T15:27:54.882Z,5.87
2019-04-21T15:31:00.736Z,5.73
2019-04-21T15:34:05.897Z,5.23
2019-04-21T15:37:11.022Z,7.63
2019-04-21T15:40:27.258Z,6.87
2019-04-21T15:43:24.513Z,7.30
2019-04-21T15:46:34.727Z,6.37
2019-04-21T15:50:04.732Z,9.50
2019-04-21T15:53:05.622Z,12.30
2019-04-21T15:56:35.667Z,6.00
2019-04-21T15:59:50.739Z,8.03
2019-04-21T16:02:58.355Z,9.00
2019-04-21T16:06:03.797Z,5.50
2019-04-21T16:09:14.921Z,5.30
2019-04-21T16:12:17.823Z,7.53
2019-04-21T16:15:23.091Z,7.97
2019-04-21T16:18:28.242Z,7.10
2019-04-21T16:21:38.345Z,5.30
2019-04-21T16:24:41.902Z,8.20
2019-04-21T16:27:47.695Z,7.37
2019-04-21T16:30:54.323Z,7.97
2019-04-21T16:34:00.925Z,7.37
2019-04-21T16:37:07.677Z,7.97
2019-04-21T16:40:14.635Z,6.53
2019-04-21T16:43:20.052Z,6.73
2019-04-21T16:46:25.387Z,7.63
2019-04-21T16:49:31.781Z,5.10
2019-04-21T16:52:52.232Z,9.07
2019-04-21T16:56:11.485Z,9.70
2019-04-21T16:59:20.980Z,5.47
2019-04-21T17:02:26.190Z,6.97
2019-04-21T17:05:32.235Z,5.00
2019-04-21T17:08:38.859Z,7.33
2019-04-21T17:11:46.999Z,4.73
2019-04-21T17:15:09.428Z,6.57
2019-04-21T17:18:15.073Z,4.70
2019-04-21T17:21:07.450Z,4.97
2019-04-21T17:24:14.596Z,3.83
2019-04-21T17:27:20.778Z,4.13
2019-04-21T17:30:26.490Z,7.17
2019-04-21T17:33:33.751Z,6.33
2019-04-21T17:36:39.275Z,4.00
2019-04-21T17:39:44.974Z,3.87
2019-04-21T17:42:59.322Z,12.40
2019-04-21T17:45:57.515Z,4.07
2019-04-21T17:49:03.210Z,4.77
2019-04-21T17:52:21.617Z,4.73
2019-04-21T17:55:31.296Z,7.60
2019-04-21T17:58:58.189Z,4.63
2019-04-21T18:02:02.118Z,4.53
2019-04-21T18:05:16.664Z,6.97
2019-04-21T18:08:21.614Z,5.13
2019-04-21T18:11:12.644Z,4.93
2019-04-21T18:14:11.421Z,6.23
2019-04-21T18:17:16.563Z,4.33
2019-04-21T18:20:28.067Z,6.50
2019-04-21T18:23:54.233Z,5.77
2019-04-21T18:26:56.562Z,5.70
2019-04-21T18:30:02.501Z,7.47
2019-04-21T18:33:15.602Z,10.63
2019-04-21T18:36:34.909Z,9.30
2019-04-21T18:39:57.491Z,8.40
2019-04-21T18:43:32.646Z,7.33
2019-04-21T18:46:40.026Z,18.10
2019-04-21T18:49:35.233Z,6.93
2019-04-21T18:53:03.250Z,5.43
2019-04-21T18:56:00.329Z,7.73
2019-04-21T18:59:00.626Z,6.17
2019-04-21T19:02:10.206Z,4.67
2019-04-21T19:05:16.033Z,5.60
2019-04-21T19:08:38.718Z,6.63
2019-04-21T19:11:42.531Z,8.03
2019-04-21T19:14:54.903Z,7.50
2019-04-21T19:18:28.107Z,4.77
2019-04-21T19:21:00.258Z,6.63
2019-04-21T19:24:25.345Z,4.50
2019-04-21T19:27:23.734Z,5.00
2019-04-21T19:30:36.839Z,6.07
2019-04-21T19:33:29.706Z,6.43
2019-04-21T19:36:23.670Z,6.80
2019-04-21T19:39:43.137Z,9.67
2019-04-21T19:42:46.452Z,9.97
2019-04-21T19:45:59.392Z,5.73
2019-04-21T19:49:17.253Z,5.83
2019-04-21T19:52:05.595Z,4.53
2019-04-21T19:55:04.491Z,4.83
2019-04-21T19:58:10.748Z,8.90
2019-04-21T20:01:17.375Z,5.30
2019-04-21T20:04:29.806Z,6.83
2019-04-21T20:07:44.509Z,5.23
2019-04-21T20:10:58.002Z,7.20
2019-04-21T20:14:32.555Z,5.93
2019-04-21T20:17:08.055Z,4.27
2019-04-21T20:19:58.231Z,9.43
2019-04-21T20:23:03.513Z,6.93
2019-04-21T20:26:10.425Z,7.43
2019-04-21T20:29:34.419Z,10.10
2019-04-21T20:32:42.706Z,4.30
2019-04-21T20:35:51.966Z,5.07
2019-04-21T20:38:47.242Z,10.30
2019-04-21T20:41:57.569Z,4.00
2019-04-21T20:45:23.556Z,5.47
2019-04-21T20:48:07.276Z,6.03
2019-04-21T20:51:23.747Z,4.17
2019-04-21T20:54:31.719Z,4.17
2019-04-21T20:57:30.076Z,5.40
2019-04-21T21:00:54.523Z,4.47
2019-04-21T21:03:50.340Z,5.50
2019-04-21T21:07:01.596Z,4.83
2019-04-21T21:10:08.744Z,7.43
2019-04-21T21:13:20.630Z,7.40
2019-04-21T21:16:23.250Z,8.90
2019-04-21T21:19:29.718Z,10.73
2019-04-21T21:22:29.641Z,6.30
2019-04-21T21:25:46.218Z,8.03
2019-04-21T21:28:39.030Z,6.20
2019-04-21T21:31:59.552Z,6.97
2019-04-21T21:34:56.642Z,9.60
2019-04-21T21:38:08.629Z,8.20
2019-04-21T21:41:09.617Z,6.77
2019-04-21T21:44:09.187Z,6.83
2019-04-21T21:47:23.999Z,6.57
2019-04-21T21:50:25.099Z,8.63
2019-04-21T21:53:28.455Z,5.87
2019-04-21T21:56:30.604Z,6.23
2019-04-21T21:59:38.168Z,6.70
2019-04-21T22:02:47.658Z,7.50
2019-04-21T22:05:58.243Z,5.37
2019-04-21T22:08:56.623Z,7.90
2019-04-21T22:12:06.271Z,6.50
2019-04-21T22:15:16.933Z,5.77
2019-04-21T22:18:35.037Z,7.53
2019-04-21T22:21:41.477Z,5.77
2019-04-21T22:24:46.951Z,6.00
2019-04-21T22:27:37.063Z,6.20
2019-04-21T22:30:46.452Z,6.57
2019-04-21T22:33:53.854Z,6.20
2019-04-21T22:37:16.669Z,7.73
2019-04-21T22:40:19.028Z,8.80
2019-04-21T22:43:21.707Z,7.33
2019-04-21T22:46:18.536Z,7.43
2019-04-21T22:49:23.923Z,6.80
2019-04-21T22:52:30.500Z,7.30
2019-04-21T22:55:37.207Z,8.80
2019-04-21T22:58:44.443Z,11.83
2019-04-21T23:01:50.819Z,9.47
2019-04-21T23:04:58.633Z,6.90
2019-04-21T23:08:06.825Z,5.83
2019-04-21T23:11:12.886Z,7.47
2019-04-21T23:14:19.018Z,9.47
2019-04-21T23:17:50.738Z,6.40
2019-04-21T23:20:53.675Z,8.50
2019-04-21T23:24:02.886Z,7.33
2019-04-21T23:27:05.165Z,6.33
2019-04-21T23:30:19.886Z,6.30
2019-04-21T23:33:07.104Z,5.93
2019-04-21T23:36:17.215Z,7.37
2019-04-21T23:39:23.332Z,7.40
2019-04-21T23:42:31.759Z,5.20
2019-04-21T23:45:37.749Z,8.70
2019-04-21T23:48:55.943Z,7.27
2019-04-21T23:51:52.897Z,8.93
2019-04-21T23:54:53.530Z,6.63
2019-04-21T23:58:07.069Z,5.77
